KNQX/NQX METAR and TAF weather

Enter ICAO airport designator
Station Type Date Time Source
KNQX METAR 2019/04/18 15:13 UTC NOAA

KNQX 181513Z 11014KT 10SM SCT018 SCT060 28/23 A3000 RMK AO2 RAE00 P0000 T02780233


Station Type Date Time Source
KNQX Decoded METAR 2019/04/18 15:13 UTC NOAA

KEY WEST NAVAL AIR STATION, FL, United States (KNQX) 24-35N 81-41W 6M
Apr 18, 2019 - 11:13 AM EDT / 2019.04.18 1513 UTC
Wind: from the ESE (110 degrees) at 16 MPH (14 KT):0
Visibility: 10 mile(s):0
Sky conditions: partly cloudy
Precipitation last hour: A trace
Temperature: 82.0 F (27.8 C)
Dew Point: 73.9 F (23.3 C)
Relative Humidity: 76%
Pressure (altimeter): 30 in. Hg (1015 hPa)
ob: KNQX 181513Z 11014KT 10SM SCT018 SCT060 28/23 A3000 RMK AO2 RAE00 P0000 T02780233
cycle: 15

Station Type Date Time Source
KNQX TAF 2019/04/18 15:59 UTC NOAA

TAF KNQX 1815/1915 13014KT 9999 SCT022 QNH2990INS
BECMG 1907/1909 16015KT 9999 VCSH SCT022 SCT060 QNH2993INS
TEMPO 1910/1915 8000 SHRA BKN022 29/1819Z T25/1911Z FN20027

Example: see airport list